sensor_id;sensor_type;location;lat;lon;timestamp;temperature;humidity
298;DHT22;133;49.626;9.680;2022-08-11T00:02:35;19.50;58.00
298;DHT22;133;49.626;9.680;2022-08-11T00:05:10;19.40;58.30
298;DHT22;133;49.626;9.680;2022-08-11T00:07:48;19.40;58.20
298;DHT22;133;49.626;9.680;2022-08-11T00:10:19;19.30;58.40
298;DHT22;133;49.626;9.680;2022-08-11T00:12:58;19.20;59.10
298;DHT22;133;49.626;9.680;2022-08-11T00:15:25;19.20;59.10
298;DHT22;133;49.626;9.680;2022-08-11T00:17:59;19.20;59.70
298;DHT22;133;49.626;9.680;2022-08-11T00:20:30;19.00;59.60
298;DHT22;133;49.626;9.680;2022-08-11T00:23:01;19.00;60.00
298;DHT22;133;49.626;9.680;2022-08-11T00:25:30;18.90;59.40
298;DHT22;133;49.626;9.680;2022-08-11T00:28:01;18.90;59.60
298;DHT22;133;49.626;9.680;2022-08-11T00:30:38;18.80;59.40
298;DHT22;133;49.626;9.680;2022-08-11T00:33:04;18.80;59.90
298;DHT22;133;49.626;9.680;2022-08-11T00:35:31;18.70;60.50
298;DHT22;133;49.626;9.680;2022-08-11T00:37:58;18.60;60.50
298;DHT22;133;49.626;9.680;2022-08-11T01:04:14;18.20;62.40
298;DHT22;133;49.626;9.680;2022-08-11T01:09:58;18.20;62.30
298;DHT22;133;49.626;9.680;2022-08-11T01:59:05;17.50;64.90
298;DHT22;133;49.626;9.680;2022-08-11T02:15:28;17.20;65.60
298;DHT22;133;49.626;9.680;2022-08-11T02:18:15;17.10;65.60
298;DHT22;133;49.626;9.680;2022-08-11T02:20:56;17.10;65.60
298;DHT22;133;49.626;9.680;2022-08-11T02:24:05;17.00;65.80
298;DHT22;133;49.626;9.680;2022-08-11T02:26:46;17.00;66.60
298;DHT22;133;49.626;9.680;2022-08-11T02:29:36;16.90;66.50
298;DHT22;133;49.626;9.680;2022-08-11T02:32:18;16.80;66.60
298;DHT22;133;49.626;9.680;2022-08-11T02:50:55;16.50;68.10
298;DHT22;133;49.626;9.680;2022-08-11T02:54:14;16.50;68.00
298;DHT22;133;49.626;9.680;2022-08-11T03:08:10;16.30;68.50
298;DHT22;133;49.626;9.680;2022-08-11T03:16:59;16.20;69.60
298;DHT22;133;49.626;9.680;2022-08-11T03:19:51;16.10;69.90
298;DHT22;133;49.626;9.680;2022-08-11T03:22:39;16.10;70.30
298;DHT22;133;49.626;9.680;2022-08-11T03:30:47;16.00;71.30
298;DHT22;133;49.626;9.680;2022-08-11T03:33:24;16.00;70.60
298;DHT22;133;49.626;9.680;2022-08-11T03:39:19;15.90;70.50
298;DHT22;133;49.626;9.680;2022-08-11T03:42:05;15.90;70.60
298;DHT22;133;49.626;9.680;2022-08-11T03:55:39;15.70;71.20
298;DHT22;133;49.626;9.680;2022-08-11T03:58:51;15.70;71.20
298;DHT22;133;49.626;9.680;2022-08-11T04:04:30;15.60;71.30
298;DHT22;133;49.626;9.680;2022-08-11T04:27:17;15.30;72.70
298;DHT22;133;49.626;9.680;2022-08-11T04:41:06;15.20;72.60
298;DHT22;133;49.626;9.680;2022-08-11T04:55:41;15.30;73.30
298;DHT22;133;49.626;9.680;2022-08-11T05:05:04;15.30;73.50
298;DHT22;133;49.626;9.680;2022-08-11T05:10:54;15.40;73.80
298;DHT22;133;49.626;9.680;2022-08-11T05:13:43;15.40;73.70
298;DHT22;133;49.626;9.680;2022-08-11T05:16:31;15.50;73.60
298;DHT22;133;49.626;9.680;2022-08-11T05:19:20;15.50;73.40
298;DHT22;133;49.626;9.680;2022-08-11T05:22:11;15.50;73.70
298;DHT22;133;49.626;9.680;2022-08-11T05:30:47;15.60;73.70
298;DHT22;133;49.626;9.680;2022-08-11T05:33:33;15.60;73.30
298;DHT22;133;49.626;9.680;2022-08-11T05:36:30;15.70;72.60
298;DHT22;133;49.626;9.680;2022-08-11T05:39:12;15.90;71.90
298;DHT22;133;49.626;9.680;2022-08-11T05:41:58;16.00;71.60
298;DHT22;133;49.626;9.680;2022-08-11T05:44:47;16.10;71.30
298;DHT22;133;49.626;9.680;2022-08-11T05:47:33;16.10;72.20
298;DHT22;133;49.626;9.680;2022-08-11T05:50:21;16.20;71.90
298;DHT22;133;49.626;9.680;2022-08-11T05:53:09;16.30;71.80
298;DHT22;133;49.626;9.680;2022-08-11T05:55:55;16.40;71.60
298;DHT22;133;49.626;9.680;2022-08-11T05:58:43;16.40;71.40
298;DHT22;133;49.626;9.680;2022-08-11T06:01:20;16.50;71.20
298;DHT22;133;49.626;9.680;2022-08-11T06:03:50;16.60;70.90
298;DHT22;133;49.626;9.680;2022-08-11T06:06:35;16.70;70.10
298;DHT22;133;49.626;9.680;2022-08-11T06:09:05;16.90;69.60
298;DHT22;133;49.626;9.680;2022-08-11T06:11:37;16.90;68.90
298;DHT22;133;49.626;9.680;2022-08-11T06:14:07;16.90;68.90
298;DHT22;133;49.626;9.680;2022-08-11T06:16:35;17.00;69.40
298;DHT22;133;49.626;9.680;2022-08-11T06:19:03;17.00;68.90
298;DHT22;133;49.626;9.680;2022-08-11T06:21:32;17.10;69.10
298;DHT22;133;49.626;9.680;2022-08-11T06:23:59;17.20;69.00
298;DHT22;133;49.626;9.680;2022-08-11T06:26:25;17.30;68.60
298;DHT22;133;49.626;9.680;2022-08-11T06:28:57;17.40;68.30
298;DHT22;133;49.626;9.680;2022-08-11T06:31:24;17.50;68.30
298;DHT22;133;49.626;9.680;2022-08-11T06:34:05;17.60;67.80
298;DHT22;133;49.626;9.680;2022-08-11T06:36:47;17.70;66.90
298;DHT22;133;49.626;9.680;2022-08-11T06:39:26;17.70;67.00
298;DHT22;133;49.626;9.680;2022-08-11T06:44:32;18.00;67.40
298;DHT22;133;49.626;9.680;2022-08-11T06:47:10;18.00;66.70
298;DHT22;133;49.626;9.680;2022-08-11T06:49:41;18.10;66.60
298;DHT22;133;49.626;9.680;2022-08-11T06:52:35;18.30;66.20
298;DHT22;133;49.626;9.680;2022-08-11T06:55:25;18.30;65.70
298;DHT22;133;49.626;9.680;2022-08-11T06:58:17;18.40;66.10
298;DHT22;133;49.626;9.680;2022-08-11T07:01:08;18.50;65.90
298;DHT22;133;49.626;9.680;2022-08-11T07:03:42;18.60;65.60
298;DHT22;133;49.626;9.680;2022-08-11T07:09:23;18.90;65.20
298;DHT22;133;49.626;9.680;2022-08-11T07:12:40;19.00;65.00
298;DHT22;133;49.626;9.680;2022-08-11T07:15:31;19.10;64.50
298;DHT22;133;49.626;9.680;2022-08-11T07:18:08;19.20;64.30
298;DHT22;133;49.626;9.680;2022-08-11T07:21:04;19.30;63.90
298;DHT22;133;49.626;9.680;2022-08-11T07:23:51;19.40;64.00
298;DHT22;133;49.626;9.680;2022-08-11T07:26:39;19.50;63.70
298;DHT22;133;49.626;9.680;2022-08-11T07:29:28;19.60;63.90
298;DHT22;133;49.626;9.680;2022-08-11T07:31:56;19.70;64.70
298;DHT22;133;49.626;9.680;2022-08-11T07:34:33;19.80;64.30
298;DHT22;133;49.626;9.680;2022-08-11T07:37:04;20.00;63.70
298;DHT22;133;49.626;9.680;2022-08-11T07:39:35;20.20;63.60
298;DHT22;133;49.626;9.680;2022-08-11T07:42:07;20.30;63.50
298;DHT22;133;49.626;9.680;2022-08-11T07:44:35;20.50;63.70
298;DHT22;133;49.626;9.680;2022-08-11T07:47:23;20.70;63.80
298;DHT22;133;49.626;9.680;2022-08-11T07:50:09;21.00;62.10
298;DHT22;133;49.626;9.680;2022-08-11T07:52:55;21.20;61.90
298;DHT22;133;49.626;9.680;2022-08-11T07:55:23;21.40;61.40
298;DHT22;133;49.626;9.680;2022-08-11T07:57:52;21.70;61.60
298;DHT22;133;49.626;9.680;2022-08-11T08:00:53;21.90;60.60
298;DHT22;133;49.626;9.680;2022-08-11T08:03:38;22.20;59.60
298;DHT22;133;49.626;9.680;2022-08-11T08:06:23;22.40;59.50
298;DHT22;133;49.626;9.680;2022-08-11T08:09:08;22.60;58.20
298;DHT22;133;49.626;9.680;2022-08-11T08:11:54;22.80;58.50
298;DHT22;133;49.626;9.680;2022-08-11T08:14:39;23.00;57.30
298;DHT22;133;49.626;9.680;2022-08-11T08:17:24;23.20;56.90
298;DHT22;133;49.626;9.680;2022-08-11T08:20:13;23.40;56.00
298;DHT22;133;49.626;9.680;2022-08-11T08:22:40;23.50;55.20
298;DHT22;133;49.626;9.680;2022-08-11T08:25:07;23.60;56.00
298;DHT22;133;49.626;9.680;2022-08-11T08:27:34;23.70;55.60
298;DHT22;133;49.626;9.680;2022-08-11T08:30:02;23.80;55.50
298;DHT22;133;49.626;9.680;2022-08-11T08:32:47;24.00;55.30
298;DHT22;133;49.626;9.680;2022-08-11T08:35:14;24.20;54.50
298;DHT22;133;49.626;9.680;2022-08-11T08:37:40;24.40;54.20
298;DHT22;133;49.626;9.680;2022-08-11T08:40:08;24.50;54.10
298;DHT22;133;49.626;9.680;2022-08-11T08:42:41;24.60;53.70
298;DHT22;133;49.626;9.680;2022-08-11T08:45:11;24.80;53.10
298;DHT22;133;49.626;9.680;2022-08-11T08:47:41;24.80;53.10
298;DHT22;133;49.626;9.680;2022-08-11T08:50:12;25.00;53.30
298;DHT22;133;49.626;9.680;2022-08-11T08:52:41;25.00;52.60
298;DHT22;133;49.626;9.680;2022-08-11T08:55:14;25.10;53.20
298;DHT22;133;49.626;9.680;2022-08-11T08:57:42;25.30;52.50
298;DHT22;133;49.626;9.680;2022-08-11T09:00:09;25.40;52.40
298;DHT22;133;49.626;9.680;2022-08-11T09:02:36;25.50;51.80
298;DHT22;133;49.626;9.680;2022-08-11T09:05:03;25.70;50.90
298;DHT22;133;49.626;9.680;2022-08-11T09:07:31;25.80;50.50
298;DHT22;133;49.626;9.680;2022-08-11T09:09:58;25.90;50.60
298;DHT22;133;49.626;9.680;2022-08-11T09:12:29;26.10;49.50
298;DHT22;133;49.626;9.680;2022-08-11T09:14:56;26.20;49.20
298;DHT22;133;49.626;9.680;2022-08-11T09:17:32;26.30;48.90
298;DHT22;133;49.626;9.680;2022-08-11T09:20:14;26.30;48.90
298;DHT22;133;49.626;9.680;2022-08-11T09:22:43;26.40;49.00
298;DHT22;133;49.626;9.680;2022-08-11T09:25:30;26.60;48.90
298;DHT22;133;49.626;9.680;2022-08-11T09:28:20;26.90;48.60
298;DHT22;133;49.626;9.680;2022-08-11T09:30:49;27.20;47.10
298;DHT22;133;49.626;9.680;2022-08-11T09:33:20;27.60;46.50
298;DHT22;133;49.626;9.680;2022-08-11T09:35:47;28.40;45.70
298;DHT22;133;49.626;9.680;2022-08-11T09:38:15;29.80;42.60
298;DHT22;133;49.626;9.680;2022-08-11T09:41:03;31.20;40.00
298;DHT22;133;49.626;9.680;2022-08-11T09:43:30;33.20;37.70
298;DHT22;133;49.626;9.680;2022-08-11T09:46:18;34.30;35.40
298;DHT22;133;49.626;9.680;2022-08-11T09:48:48;35.80;33.80
298;DHT22;133;49.626;9.680;2022-08-11T09:51:14;36.40;32.50
298;DHT22;133;49.626;9.680;2022-08-11T09:53:42;36.80;32.00
298;DHT22;133;49.626;9.680;2022-08-11T09:56:13;37.20;32.10
298;DHT22;133;49.626;9.680;2022-08-11T09:59:00;37.70;31.80
298;DHT22;133;49.626;9.680;2022-08-11T10:04:43;38.50;31.00
298;DHT22;133;49.626;9.680;2022-08-11T10:07:36;39.00;30.40
298;DHT22;133;49.626;9.680;2022-08-11T10:10:04;38.40;30.90
298;DHT22;133;49.626;9.680;2022-08-11T10:12:36;38.60;30.90
298;DHT22;133;49.626;9.680;2022-08-11T10:15:08;38.10;31.10
298;DHT22;133;49.626;9.680;2022-08-11T10:17:57;37.60;31.50
298;DHT22;133;49.626;9.680;2022-08-11T10:20:44;37.20;31.80
298;DHT22;133;49.626;9.680;2022-08-11T10:23:13;35.80;33.30
298;DHT22;133;49.626;9.680;2022-08-11T10:25:57;34.60;35.10
298;DHT22;133;49.626;9.680;2022-08-11T10:28:55;33.90;34.90
298;DHT22;133;49.626;9.680;2022-08-11T10:31:22;33.10;36.40
298;DHT22;133;49.626;9.680;2022-08-11T10:34:07;32.70;37.00
298;DHT22;133;49.626;9.680;2022-08-11T10:36:53;32.20;36.80
298;DHT22;133;49.626;9.680;2022-08-11T10:39:30;32.50;36.70
298;DHT22;133;49.626;9.680;2022-08-11T10:41:57;33.50;35.50
298;DHT22;133;49.626;9.680;2022-08-11T10:44:50;34.20;34.70
298;DHT22;133;49.626;9.680;2022-08-11T10:47:16;35.10;33.80
298;DHT22;133;49.626;9.680;2022-08-11T10:50:09;36.00;33.10
298;DHT22;133;49.626;9.680;2022-08-11T10:52:56;36.60;32.70
298;DHT22;133;49.626;9.680;2022-08-11T10:55:42;37.00;32.20
298;DHT22;133;49.626;9.680;2022-08-11T10:58:27;37.10;31.50
298;DHT22;133;49.626;9.680;2022-08-11T11:04:37;38.40;30.90
298;DHT22;133;49.626;9.680;2022-08-11T11:10:47;39.20;29.20
298;DHT22;133;49.626;9.680;2022-08-11T11:13:14;38.90;29.60
298;DHT22;133;49.626;9.680;2022-08-11T11:16:01;39.40;29.40
298;DHT22;133;49.626;9.680;2022-08-11T11:18:47;39.40;29.00
298;DHT22;133;49.626;9.680;2022-08-11T11:21:18;39.80;28.90
298;DHT22;133;49.626;9.680;2022-08-11T11:24:00;39.80;28.90
298;DHT22;133;49.626;9.680;2022-08-11T11:27:22;38.60;30.10
298;DHT22;133;49.626;9.680;2022-08-11T11:30:09;38.60;30.00
298;DHT22;133;49.626;9.680;2022-08-11T11:35:36;38.30;30.10
298;DHT22;133;49.626;9.680;2022-08-11T11:38:10;38.30;30.40
298;DHT22;133;49.626;9.680;2022-08-11T11:40:38;37.90;29.80
298;DHT22;133;49.626;9.680;2022-08-11T11:43:07;38.10;29.80
298;DHT22;133;49.626;9.680;2022-08-11T11:45:33;38.00;30.40
298;DHT22;133;49.626;9.680;2022-08-11T11:48:00;38.70;29.70
298;DHT22;133;49.626;9.680;2022-08-11T11:50:35;38.50;29.20
298;DHT22;133;49.626;9.680;2022-08-11T11:55:48;38.80;28.80
298;DHT22;133;49.626;9.680;2022-08-11T11:58:15;39.00;29.30
298;DHT22;133;49.626;9.680;2022-08-11T12:01:00;39.20;29.20
298;DHT22;133;49.626;9.680;2022-08-11T12:03:49;39.00;29.60
298;DHT22;133;49.626;9.680;2022-08-11T12:06:17;38.90;29.60
298;DHT22;133;49.626;9.680;2022-08-11T12:08:48;38.80;29.90
298;DHT22;133;49.626;9.680;2022-08-11T12:11:19;39.20;29.50
298;DHT22;133;49.626;9.680;2022-08-11T12:14:06;39.30;29.30
298;DHT22;133;49.626;9.680;2022-08-11T12:16:35;39.60;28.60
298;DHT22;133;49.626;9.680;2022-08-11T12:19:10;39.00;29.30
298;DHT22;133;49.626;9.680;2022-08-11T12:21:37;38.90;29.40
298;DHT22;133;49.626;9.680;2022-08-11T12:24:23;39.10;29.20
298;DHT22;133;49.626;9.680;2022-08-11T12:27:08;40.10;29.00
298;DHT22;133;49.626;9.680;2022-08-11T12:29:59;39.80;28.70
298;DHT22;133;49.626;9.680;2022-08-11T12:32:32;39.60;28.90
298;DHT22;133;49.626;9.680;2022-08-11T12:34:59;39.80;28.80
298;DHT22;133;49.626;9.680;2022-08-11T12:37:36;40.10;28.80
298;DHT22;133;49.626;9.680;2022-08-11T12:40:08;40.00;28.20
298;DHT22;133;49.626;9.680;2022-08-11T12:43:01;40.20;27.70
298;DHT22;133;49.626;9.680;2022-08-11T12:45:48;40.70;28.20
298;DHT22;133;49.626;9.680;2022-08-11T12:48:19;40.80;28.50
298;DHT22;133;49.626;9.680;2022-08-11T12:51:10;40.40;28.00
298;DHT22;133;49.626;9.680;2022-08-11T12:54:12;40.60;27.40
298;DHT22;133;49.626;9.680;2022-08-11T12:56:44;40.50;27.90
298;DHT22;133;49.626;9.680;2022-08-11T12:59:30;39.80;27.70
298;DHT22;133;49.626;9.680;2022-08-11T13:02:16;40.10;27.90
298;DHT22;133;49.626;9.680;2022-08-11T13:05:04;40.00;27.50
298;DHT22;133;49.626;9.680;2022-08-11T13:07:31;39.80;27.70
298;DHT22;133;49.626;9.680;2022-08-11T13:10:03;39.70;27.90
298;DHT22;133;49.626;9.680;2022-08-11T13:12:29;39.50;27.70
298;DHT22;133;49.626;9.680;2022-08-11T13:15:19;39.50;27.80
298;DHT22;133;49.626;9.680;2022-08-11T13:17:48;39.70;27.60
298;DHT22;133;49.626;9.680;2022-08-11T13:20:18;40.00;27.60
298;DHT22;133;49.626;9.680;2022-08-11T13:22:47;40.40;27.30
298;DHT22;133;49.626;9.680;2022-08-11T13:25:15;40.50;27.40
298;DHT22;133;49.626;9.680;2022-08-11T13:27:43;41.20;27.00
298;DHT22;133;49.626;9.680;2022-08-11T13:30:11;41.10;27.00
298;DHT22;133;49.626;9.680;2022-08-11T13:32:56;41.20;26.70
298;DHT22;133;49.626;9.680;2022-08-11T13:35:23;40.70;27.10
298;DHT22;133;49.626;9.680;2022-08-11T13:37:50;40.10;27.50
298;DHT22;133;49.626;9.680;2022-08-11T13:40:17;39.30;27.50
298;DHT22;133;49.626;9.680;2022-08-11T13:42:44;38.80;27.90
298;DHT22;133;49.626;9.680;2022-08-11T13:45:12;38.60;28.20
298;DHT22;133;49.626;9.680;2022-08-11T13:47:39;38.90;28.60
298;DHT22;133;49.626;9.680;2022-08-11T13:50:10;38.90;28.60
298;DHT22;133;49.626;9.680;2022-08-11T13:52:38;39.20;28.30
298;DHT22;133;49.626;9.680;2022-08-11T13:55:08;39.10;28.20
298;DHT22;133;49.626;9.680;2022-08-11T13:57:35;38.70;28.10
298;DHT22;133;49.626;9.680;2022-08-11T14:00:06;38.70;28.40
298;DHT22;133;49.626;9.680;2022-08-11T14:02:42;38.80;28.40
298;DHT22;133;49.626;9.680;2022-08-11T14:05:24;38.70;28.40
298;DHT22;133;49.626;9.680;2022-08-11T14:07:56;38.10;28.60
298;DHT22;133;49.626;9.680;2022-08-11T14:10:27;38.00;28.50
298;DHT22;133;49.626;9.680;2022-08-11T14:13:10;37.80;28.90
298;DHT22;133;49.626;9.680;2022-08-11T14:16:02;37.90;28.70
298;DHT22;133;49.626;9.680;2022-08-11T14:18:30;37.50;28.80
298;DHT22;133;49.626;9.680;2022-08-11T14:20:59;37.50;28.50
298;DHT22;133;49.626;9.680;2022-08-11T14:23:50;37.20;28.90
298;DHT22;133;49.626;9.680;2022-08-11T14:26:20;36.60;29.10
298;DHT22;133;49.626;9.680;2022-08-11T14:28:56;36.60;29.80
298;DHT22;133;49.626;9.680;2022-08-11T14:31:26;36.50;29.80
298;DHT22;133;49.626;9.680;2022-08-11T14:33:56;36.50;29.80
298;DHT22;133;49.626;9.680;2022-08-11T14:36:27;36.60;29.70
298;DHT22;133;49.626;9.680;2022-08-11T14:38:53;36.70;29.70
298;DHT22;133;49.626;9.680;2022-08-11T14:41:22;36.90;30.00
298;DHT22;133;49.626;9.680;2022-08-11T14:44:08;36.60;30.00
298;DHT22;133;49.626;9.680;2022-08-11T14:46:53;36.50;30.00
298;DHT22;133;49.626;9.680;2022-08-11T14:49:35;36.60;29.90
298;DHT22;133;49.626;9.680;2022-08-11T14:53:14;36.60;30.40
298;DHT22;133;49.626;9.680;2022-08-11T14:55:34;36.60;30.70
298;DHT22;133;49.626;9.680;2022-08-11T14:58:26;36.80;30.30
298;DHT22;133;49.626;9.680;2022-08-11T15:01:14;36.80;30.20
298;DHT22;133;49.626;9.680;2022-08-11T15:03:59;36.80;29.90
298;DHT22;133;49.626;9.680;2022-08-11T15:06:26;36.90;29.20
298;DHT22;133;49.626;9.680;2022-08-11T15:09:02;36.80;29.50
298;DHT22;133;49.626;9.680;2022-08-11T15:11:29;36.80;30.00
298;DHT22;133;49.626;9.680;2022-08-11T15:14:15;36.60;29.90
298;DHT22;133;49.626;9.680;2022-08-11T15:17:09;36.40;30.30
298;DHT22;133;49.626;9.680;2022-08-11T15:19:41;36.40;30.30
298;DHT22;133;49.626;9.680;2022-08-11T15:22:28;36.50;30.70
298;DHT22;133;49.626;9.680;2022-08-11T15:25:13;36.40;29.30
298;DHT22;133;49.626;9.680;2022-08-11T15:27:39;36.40;30.20
298;DHT22;133;49.626;9.680;2022-08-11T15:30:26;36.50;30.10
298;DHT22;133;49.626;9.680;2022-08-11T15:33:11;36.50;30.50
298;DHT22;133;49.626;9.680;2022-08-11T15:36:00;36.40;29.60
298;DHT22;133;49.626;9.680;2022-08-11T15:39:17;36.30;29.90
298;DHT22;133;49.626;9.680;2022-08-11T15:41:52;36.30;30.30
298;DHT22;133;49.626;9.680;2022-08-11T15:44:41;36.10;30.20
298;DHT22;133;49.626;9.680;2022-08-11T15:47:35;36.10;29.90
298;DHT22;133;49.626;9.680;2022-08-11T15:50:03;36.10;30.30
298;DHT22;133;49.626;9.680;2022-08-11T15:52:33;35.90;30.40
298;DHT22;133;49.626;9.680;2022-08-11T15:55:05;35.70;30.80
298;DHT22;133;49.626;9.680;2022-08-11T15:57:32;35.50;30.80
298;DHT22;133;49.626;9.680;2022-08-11T16:00:18;35.50;31.00
298;DHT22;133;49.626;9.680;2022-08-11T16:03:10;35.40;30.90
298;DHT22;133;49.626;9.680;2022-08-11T16:06:17;35.20;31.30
298;DHT22;133;49.626;9.680;2022-08-11T16:09:05;35.10;31.50
298;DHT22;133;49.626;9.680;2022-08-11T16:11:33;35.20;31.30
298;DHT22;133;49.626;9.680;2022-08-11T16:14:02;35.30;31.30
298;DHT22;133;49.626;9.680;2022-08-11T16:16:49;35.10;31.30
298;DHT22;133;49.626;9.680;2022-08-11T16:19:18;35.00;31.40
298;DHT22;133;49.626;9.680;2022-08-11T16:21:46;35.20;31.20
298;DHT22;133;49.626;9.680;2022-08-11T16:24:17;35.30;31.00
298;DHT22;133;49.626;9.680;2022-08-11T16:26:44;35.30;31.00
298;DHT22;133;49.626;9.680;2022-08-11T16:29:11;35.10;30.90
298;DHT22;133;49.626;9.680;2022-08-11T16:31:39;35.00;30.90
298;DHT22;133;49.626;9.680;2022-08-11T16:34:06;34.90;31.00
298;DHT22;133;49.626;9.680;2022-08-11T16:36:55;34.80;31.50
298;DHT22;133;49.626;9.680;2022-08-11T16:39:41;34.70;31.40
298;DHT22;133;49.626;9.680;2022-08-11T16:42:08;34.50;31.90
298;DHT22;133;49.626;9.680;2022-08-11T16:44:54;34.20;31.50
298;DHT22;133;49.626;9.680;2022-08-11T16:47:41;34.10;32.00
298;DHT22;133;49.626;9.680;2022-08-11T16:50:08;34.10;32.10
298;DHT22;133;49.626;9.680;2022-08-11T16:52:34;34.00;32.30
298;DHT22;133;49.626;9.680;2022-08-11T16:55:01;33.90;32.50
298;DHT22;133;49.626;9.680;2022-08-11T16:57:28;33.80;32.50
298;DHT22;133;49.626;9.680;2022-08-11T17:00:15;33.80;32.30
298;DHT22;133;49.626;9.680;2022-08-11T17:02:48;33.70;32.80
298;DHT22;133;49.626;9.680;2022-08-11T17:05:34;33.50;32.30
298;DHT22;133;49.626;9.680;2022-08-11T17:08:28;33.50;32.40
298;DHT22;133;49.626;9.680;2022-08-11T17:11:17;33.40;32.50
298;DHT22;133;49.626;9.680;2022-08-11T17:14:10;33.30;32.60
298;DHT22;133;49.626;9.680;2022-08-11T17:16:38;33.20;32.60
298;DHT22;133;49.626;9.680;2022-08-11T17:19:12;33.00;32.70
298;DHT22;133;49.626;9.680;2022-08-11T17:21:41;32.80;33.00
298;DHT22;133;49.626;9.680;2022-08-11T17:24:28;32.80;33.10
298;DHT22;133;49.626;9.680;2022-08-11T17:26:56;32.80;33.20
298;DHT22;133;49.626;9.680;2022-08-11T17:29:36;32.70;33.40
298;DHT22;133;49.626;9.680;2022-08-11T17:32:05;32.50;33.20
298;DHT22;133;49.626;9.680;2022-08-11T17:34:53;32.40;33.50
298;DHT22;133;49.626;9.680;2022-08-11T17:37:39;32.30;33.50
298;DHT22;133;49.626;9.680;2022-08-11T17:40:09;32.20;33.60
298;DHT22;133;49.626;9.680;2022-08-11T17:42:37;32.10;33.60
298;DHT22;133;49.626;9.680;2022-08-11T17:45:22;32.00;34.00
298;DHT22;133;49.626;9.680;2022-08-11T17:48:08;32.00;34.30
298;DHT22;133;49.626;9.680;2022-08-11T17:51:02;31.90;34.00
298;DHT22;133;49.626;9.680;2022-08-11T17:53:33;31.70;34.60
298;DHT22;133;49.626;9.680;2022-08-11T17:56:19;31.60;34.50
298;DHT22;133;49.626;9.680;2022-08-11T17:59:17;31.50;34.90
298;DHT22;133;49.626;9.680;2022-08-11T18:02:04;31.30;35.30
298;DHT22;133;49.626;9.680;2022-08-11T18:04:50;31.20;35.30
298;DHT22;133;49.626;9.680;2022-08-11T18:07:18;31.10;35.40
298;DHT22;133;49.626;9.680;2022-08-11T18:10:05;30.90;35.90
298;DHT22;133;49.626;9.680;2022-08-11T18:12:51;30.80;36.00
298;DHT22;133;49.626;9.680;2022-08-11T18:15:39;30.70;36.30
298;DHT22;133;49.626;9.680;2022-08-11T18:18:24;30.50;36.40
298;DHT22;133;49.626;9.680;2022-08-11T18:21:11;30.30;36.60
298;DHT22;133;49.626;9.680;2022-08-11T18:23:57;30.10;37.00
298;DHT22;133;49.626;9.680;2022-08-11T18:26:44;30.00;36.90
298;DHT22;133;49.626;9.680;2022-08-11T18:29:30;29.90;37.20
298;DHT22;133;49.626;9.680;2022-08-11T18:32:16;29.70;37.50
298;DHT22;133;49.626;9.680;2022-08-11T18:35:02;29.50;38.20
298;DHT22;133;49.626;9.680;2022-08-11T18:37:49;29.30;38.70
298;DHT22;133;49.626;9.680;2022-08-11T18:40:35;29.10;39.70
298;DHT22;133;49.626;9.680;2022-08-11T18:43:20;28.90;39.80
298;DHT22;133;49.626;9.680;2022-08-11T18:46:06;28.70;39.70
298;DHT22;133;49.626;9.680;2022-08-11T18:48:59;28.50;40.10
298;DHT22;133;49.626;9.680;2022-08-11T18:51:46;28.20;40.80
298;DHT22;133;49.626;9.680;2022-08-11T18:54:35;28.00;40.90
298;DHT22;133;49.626;9.680;2022-08-11T18:57:20;27.80;41.20
298;DHT22;133;49.626;9.680;2022-08-11T19:00:06;27.60;41.50
298;DHT22;133;49.626;9.680;2022-08-11T19:02:51;27.40;41.50
298;DHT22;133;49.626;9.680;2022-08-11T19:05:35;27.20;42.60
298;DHT22;133;49.626;9.680;2022-08-11T19:08:22;27.00;42.50
298;DHT22;133;49.626;9.680;2022-08-11T19:11:09;26.80;42.90
298;DHT22;133;49.626;9.680;2022-08-11T19:13:55;26.60;43.20
298;DHT22;133;49.626;9.680;2022-08-11T19:16:42;26.50;43.30
298;DHT22;133;49.626;9.680;2022-08-11T19:19:27;26.40;43.30
298;DHT22;133;49.626;9.680;2022-08-11T19:22:12;26.30;43.80
298;DHT22;133;49.626;9.680;2022-08-11T19:24:57;26.10;44.20
298;DHT22;133;49.626;9.680;2022-08-11T19:27:42;25.90;44.10
298;DHT22;133;49.626;9.680;2022-08-11T19:30:30;25.80;45.00
298;DHT22;133;49.626;9.680;2022-08-11T19:33:15;25.60;45.20
298;DHT22;133;49.626;9.680;2022-08-11T19:36:01;25.50;45.00
298;DHT22;133;49.626;9.680;2022-08-11T19:38:46;25.30;45.00
298;DHT22;133;49.626;9.680;2022-08-11T19:41:31;25.20;45.40
298;DHT22;133;49.626;9.680;2022-08-11T19:44:16;25.10;45.90
298;DHT22;133;49.626;9.680;2022-08-11T19:47:01;24.90;46.00
298;DHT22;133;49.626;9.680;2022-08-11T19:49:47;24.70;45.90
298;DHT22;133;49.626;9.680;2022-08-11T19:52:34;24.50;46.20
298;DHT22;133;49.626;9.680;2022-08-11T19:55:19;24.50;46.30
298;DHT22;133;49.626;9.680;2022-08-11T19:58:04;24.40;46.40
298;DHT22;133;49.626;9.680;2022-08-11T20:00:49;24.30;46.70
298;DHT22;133;49.626;9.680;2022-08-11T20:03:33;24.30;46.70
298;DHT22;133;49.626;9.680;2022-08-11T20:06:19;24.30;46.80
298;DHT22;133;49.626;9.680;2022-08-11T20:09:05;24.20;46.80
298;DHT22;133;49.626;9.680;2022-08-11T20:11:53;24.20;47.00
298;DHT22;133;49.626;9.680;2022-08-11T20:14:39;24.20;47.20
298;DHT22;133;49.626;9.680;2022-08-11T20:17:26;24.10;47.30
298;DHT22;133;49.626;9.680;2022-08-11T20:20:13;24.10;47.00
298;DHT22;133;49.626;9.680;2022-08-11T20:23:03;24.00;47.50
298;DHT22;133;49.626;9.680;2022-08-11T20:25:49;24.00;48.30
298;DHT22;133;49.626;9.680;2022-08-11T20:28:34;24.00;48.20
298;DHT22;133;49.626;9.680;2022-08-11T20:31:20;24.00;48.70
298;DHT22;133;49.626;9.680;2022-08-11T20:34:08;23.90;47.80
298;DHT22;133;49.626;9.680;2022-08-11T20:36:54;23.90;48.00
298;DHT22;133;49.626;9.680;2022-08-11T20:39:40;23.80;48.70
298;DHT22;133;49.626;9.680;2022-08-11T20:42:27;23.70;49.20
298;DHT22;133;49.626;9.680;2022-08-11T20:45:12;23.70;48.50
298;DHT22;133;49.626;9.680;2022-08-11T20:47:57;23.50;48.50
298;DHT22;133;49.626;9.680;2022-08-11T20:50:45;23.50;48.70
298;DHT22;133;49.626;9.680;2022-08-11T20:53:31;23.30;48.70
298;DHT22;133;49.626;9.680;2022-08-11T20:56:18;23.10;49.10
298;DHT22;133;49.626;9.680;2022-08-11T20:59:05;23.10;49.70
298;DHT22;133;49.626;9.680;2022-08-11T21:01:50;22.90;49.70
298;DHT22;133;49.626;9.680;2022-08-11T21:04:34;22.90;49.90
298;DHT22;133;49.626;9.680;2022-08-11T21:07:19;22.80;49.50
298;DHT22;133;49.626;9.680;2022-08-11T21:10:05;22.80;50.30
298;DHT22;133;49.626;9.680;2022-08-11T21:12:53;22.80;49.40
298;DHT22;133;49.626;9.680;2022-08-11T21:15:39;22.80;49.30
298;DHT22;133;49.626;9.680;2022-08-11T21:18:25;22.80;49.60
298;DHT22;133;49.626;9.680;2022-08-11T21:21:12;22.80;49.40
298;DHT22;133;49.626;9.680;2022-08-11T21:23:59;22.80;49.40
298;DHT22;133;49.626;9.680;2022-08-11T21:26:47;22.80;50.50
298;DHT22;133;49.626;9.680;2022-08-11T21:29:34;22.80;50.10
298;DHT22;133;49.626;9.680;2022-08-11T21:32:20;22.80;50.00
298;DHT22;133;49.626;9.680;2022-08-11T21:35:07;22.80;50.20
298;DHT22;133;49.626;9.680;2022-08-11T21:37:52;22.80;51.10
298;DHT22;133;49.626;9.680;2022-08-11T21:40:38;22.80;49.90
298;DHT22;133;49.626;9.680;2022-08-11T21:43:28;22.80;49.90